sensor_id;sensor_type;location;lat;lon;timestamp;P1;durP1;ratioP1;P2;durP2;ratioP2
72590;SDS011;60625;51.212;5.952;2022-11-15T00:01:54;18.30;;;9.80;;
72590;SDS011;60625;51.212;5.952;2022-11-15T00:07:13;16.30;;;9.30;;
72590;SDS011;60625;51.212;5.952;2022-11-15T00:12:33;16.50;;;9.10;;
72590;SDS011;60625;51.212;5.952;2022-11-15T00:17:52;17.40;;;9.40;;
72590;SDS011;60625;51.212;5.952;2022-11-15T00:23:11;14.90;;;9.00;;
72590;SDS011;60625;51.212;5.952;2022-11-15T00:28:30;17.40;;;9.50;;
72590;SDS011;60625;51.212;5.952;2022-11-15T00:33:50;19.60;;;9.90;;
72590;SDS011;60625;51.212;5.952;2022-11-15T00:39:09;17.50;;;9.30;;
72590;SDS011;60625;51.212;5.952;2022-11-15T00:44:29;16.70;;;8.80;;
72590;SDS011;60625;51.212;5.952;2022-11-15T00:49:48;17.50;;;9.50;;
72590;SDS011;60625;51.212;5.952;2022-11-15T00:55:12;19.70;;;9.70;;
72590;SDS011;60625;51.212;5.952;2022-11-15T01:00:34;17.20;;;9.50;;
72590;SDS011;60625;51.212;5.952;2022-11-15T01:05:53;18.40;;;9.50;;
72590;SDS011;60625;51.212;5.952;2022-11-15T01:11:12;16.60;;;10.10;;
72590;SDS011;60625;51.212;5.952;2022-11-15T01:16:32;17.80;;;9.30;;
72590;SDS011;60625;51.212;5.952;2022-11-15T01:21:52;16.30;;;8.50;;
72590;SDS011;60625;51.212;5.952;2022-11-15T01:27:11;18.20;;;10.20;;
72590;SDS011;60625;51.212;5.952;2022-11-15T01:32:30;17.90;;;9.50;;
72590;SDS011;60625;51.212;5.952;2022-11-15T01:37:49;21.10;;;10.40;;
72590;SDS011;60625;51.212;5.952;2022-11-15T01:43:28;20.70;;;10.10;;
72590;SDS011;60625;51.212;5.952;2022-11-15T01:48:53;17.00;;;10.10;;
72590;SDS011;60625;51.212;5.952;2022-11-15T01:54:15;18.10;;;9.60;;
72590;SDS011;60625;51.212;5.952;2022-11-15T01:59:39;18.90;;;9.30;;
72590;SDS011;60625;51.212;5.952;2022-11-15T02:04:59;19.60;;;9.90;;
72590;SDS011;60625;51.212;5.952;2022-11-15T02:10:21;17.30;;;10.10;;
72590;SDS011;60625;51.212;5.952;2022-11-15T02:15:57;19.70;;;9.90;;
72590;SDS011;60625;51.212;5.952;2022-11-15T02:21:44;16.10;;;9.10;;
72590;SDS011;60625;51.212;5.952;2022-11-15T02:32:53;18.70;;;9.80;;
72590;SDS011;60625;51.212;5.952;2022-11-15T02:38:39;15.20;;;9.40;;
72590;SDS011;60625;51.212;5.952;2022-11-15T02:44:15;19.80;;;9.50;;
72590;SDS011;60625;51.212;5.952;2022-11-15T02:49:37;18.00;;;8.30;;
72590;SDS011;60625;51.212;5.952;2022-11-15T02:55:00;16.30;;;8.50;;
72590;SDS011;60625;51.212;5.952;2022-11-15T03:00:20;14.20;;;8.30;;
72590;SDS011;60625;51.212;5.952;2022-11-15T03:06:09;16.20;;;9.00;;
72590;SDS011;60625;51.212;5.952;2022-11-15T03:11:36;15.40;;;8.40;;
72590;SDS011;60625;51.212;5.952;2022-11-15T03:17:20;16.10;;;9.20;;
72590;SDS011;60625;51.212;5.952;2022-11-15T03:22:44;15.80;;;8.20;;
72590;SDS011;60625;51.212;5.952;2022-11-15T03:28:06;15.30;;;9.40;;
72590;SDS011;60625;51.212;5.952;2022-11-15T03:33:29;16.90;;;8.60;;
72590;SDS011;60625;51.212;5.952;2022-11-15T03:38:49;19.60;;;8.30;;
72590;SDS011;60625;51.212;5.952;2022-11-15T03:44:20;17.20;;;8.00;;
72590;SDS011;60625;51.212;5.952;2022-11-15T03:49:59;15.20;;;8.50;;
72590;SDS011;60625;51.212;5.952;2022-11-15T03:55:26;17.40;;;7.90;;
72590;SDS011;60625;51.212;5.952;2022-11-15T04:00:46;16.40;;;8.20;;
72590;SDS011;60625;51.212;5.952;2022-11-15T04:06:05;13.20;;;7.90;;
72590;SDS011;60625;51.212;5.952;2022-11-15T04:11:25;14.00;;;7.50;;
72590;SDS011;60625;51.212;5.952;2022-11-15T04:16:44;17.40;;;8.00;;
72590;SDS011;60625;51.212;5.952;2022-11-15T04:22:03;14.70;;;8.00;;
72590;SDS011;60625;51.212;5.952;2022-11-15T04:27:41;12.80;;;8.00;;
72590;SDS011;60625;51.212;5.952;2022-11-15T04:33:00;15.60;;;7.50;;
72590;SDS011;60625;51.212;5.952;2022-11-15T04:38:19;13.40;;;6.90;;
72590;SDS011;60625;51.212;5.952;2022-11-15T04:43:39;11.60;;;6.80;;
72590;SDS011;60625;51.212;5.952;2022-11-15T04:48:58;14.30;;;7.70;;
72590;SDS011;60625;51.212;5.952;2022-11-15T04:54:17;13.50;;;7.20;;
72590;SDS011;60625;51.212;5.952;2022-11-15T04:59:36;12.40;;;7.00;;
72590;SDS011;60625;51.212;5.952;2022-11-15T05:04:56;12.50;;;7.20;;
72590;SDS011;60625;51.212;5.952;2022-11-15T05:10:16;12.20;;;6.10;;
72590;SDS011;60625;51.212;5.952;2022-11-15T05:15:35;14.80;;;7.20;;
72590;SDS011;60625;51.212;5.952;2022-11-15T05:20:54;14.70;;;7.20;;
72590;SDS011;60625;51.212;5.952;2022-11-15T05:26:18;11.70;;;6.30;;
72590;SDS011;60625;51.212;5.952;2022-11-15T05:31:39;12.50;;;6.90;;
72590;SDS011;60625;51.212;5.952;2022-11-15T05:37:00;9.60;;;6.30;;
72590;SDS011;60625;51.212;5.952;2022-11-15T05:42:19;9.70;;;6.00;;
72590;SDS011;60625;51.212;5.952;2022-11-15T05:47:39;10.80;;;7.00;;
72590;SDS011;60625;51.212;5.952;2022-11-15T05:52:59;11.80;;;6.30;;
72590;SDS011;60625;51.212;5.952;2022-11-15T05:58:20;9.90;;;5.10;;
72590;SDS011;60625;51.212;5.952;2022-11-15T06:03:39;8.60;;;4.20;;
72590;SDS011;60625;51.212;5.952;2022-11-15T06:08:59;7.20;;;4.30;;
72590;SDS011;60625;51.212;5.952;2022-11-15T06:14:18;6.90;;;4.10;;
72590;SDS011;60625;51.212;5.952;2022-11-15T06:19:37;7.90;;;4.20;;
72590;SDS011;60625;51.212;5.952;2022-11-15T06:24:56;6.70;;;2.90;;
72590;SDS011;60625;51.212;5.952;2022-11-15T06:30:15;4.60;;;2.20;;
72590;SDS011;60625;51.212;5.952;2022-11-15T06:35:35;5.00;;;2.10;;
72590;SDS011;60625;51.212;5.952;2022-11-15T06:41:01;6.10;;;2.20;;
72590;SDS011;60625;51.212;5.952;2022-11-15T06:46:21;6.40;;;1.80;;
72590;SDS011;60625;51.212;5.952;2022-11-15T06:51:40;5.50;;;2.10;;
72590;SDS011;60625;51.212;5.952;2022-11-15T06:57:00;6.40;;;2.30;;
72590;SDS011;60625;51.212;5.952;2022-11-15T07:02:19;7.00;;;2.40;;
72590;SDS011;60625;51.212;5.952;2022-11-15T07:07:38;7.00;;;2.50;;
72590;SDS011;60625;51.212;5.952;2022-11-15T07:12:58;5.00;;;1.90;;
72590;SDS011;60625;51.212;5.952;2022-11-15T07:18:17;4.60;;;2.00;;
72590;SDS011;60625;51.212;5.952;2022-11-15T07:23:37;6.70;;;2.30;;
72590;SDS011;60625;51.212;5.952;2022-11-15T07:29:00;5.30;;;2.50;;
72590;SDS011;60625;51.212;5.952;2022-11-15T07:34:19;6.10;;;2.40;;
72590;SDS011;60625;51.212;5.952;2022-11-15T07:39:38;7.50;;;2.70;;
72590;SDS011;60625;51.212;5.952;2022-11-15T07:44:58;7.40;;;2.20;;
72590;SDS011;60625;51.212;5.952;2022-11-15T07:50:18;5.60;;;2.30;;
72590;SDS011;60625;51.212;5.952;2022-11-15T07:55:39;8.70;;;3.20;;
72590;SDS011;60625;51.212;5.952;2022-11-15T08:01:03;6.60;;;2.70;;
72590;SDS011;60625;51.212;5.952;2022-11-15T08:06:23;5.10;;;2.10;;
72590;SDS011;60625;51.212;5.952;2022-11-15T08:11:42;6.90;;;2.10;;
72590;SDS011;60625;51.212;5.952;2022-11-15T08:17:02;5.90;;;2.10;;
72590;SDS011;60625;51.212;5.952;2022-11-15T08:22:21;5.00;;;1.70;;
72590;SDS011;60625;51.212;5.952;2022-11-15T08:27:40;7.30;;;1.70;;
72590;SDS011;60625;51.212;5.952;2022-11-15T08:32:59;4.70;;;1.70;;
72590;SDS011;60625;51.212;5.952;2022-11-15T08:38:18;4.20;;;1.40;;
72590;SDS011;60625;51.212;5.952;2022-11-15T08:43:37;4.20;;;1.30;;
72590;SDS011;60625;51.212;5.952;2022-11-15T08:48:57;4.80;;;1.10;;
72590;SDS011;60625;51.212;5.952;2022-11-15T08:54:16;4.30;;;1.60;;
72590;SDS011;60625;51.212;5.952;2022-11-15T08:59:36;5.10;;;0.80;;
72590;SDS011;60625;51.212;5.952;2022-11-15T09:04:55;3.00;;;0.90;;
72590;SDS011;60625;51.212;5.952;2022-11-15T09:10:15;4.20;;;1.20;;
72590;SDS011;60625;51.212;5.952;2022-11-15T09:15:34;2.60;;;1.00;;
72590;SDS011;60625;51.212;5.952;2022-11-15T09:20:58;3.40;;;0.80;;
72590;SDS011;60625;51.212;5.952;2022-11-15T09:26:18;4.80;;;1.10;;
72590;SDS011;60625;51.212;5.952;2022-11-15T09:31:37;4.50;;;0.80;;
72590;SDS011;60625;51.212;5.952;2022-11-15T09:36:56;5.20;;;0.90;;
72590;SDS011;60625;51.212;5.952;2022-11-15T09:42:53;4.50;;;0.80;;
72590;SDS011;60625;51.212;5.952;2022-11-15T09:48:43;6.20;;;0.80;;
72590;SDS011;60625;51.212;5.952;2022-11-15T09:59:49;3.90;;;0.90;;
72590;SDS011;60625;51.212;5.952;2022-11-15T10:04:57;2.80;;;0.70;;
72590;SDS011;60625;51.212;5.952;2022-11-15T10:10:21;2.00;;;0.70;;
72590;SDS011;60625;51.212;5.952;2022-11-15T10:15:26;6.40;;;1.40;;
72590;SDS011;60625;51.212;5.952;2022-11-15T10:20:32;4.10;;;0.80;;
72590;SDS011;60625;51.212;5.952;2022-11-15T10:25:42;3.60;;;0.60;;
72590;SDS011;60625;51.212;5.952;2022-11-15T10:30:46;3.60;;;0.60;;
72590;SDS011;60625;51.212;5.952;2022-11-15T10:35:48;3.90;;;0.70;;
72590;SDS011;60625;51.212;5.952;2022-11-15T10:41:11;2.80;;;0.70;;
72590;SDS011;60625;51.212;5.952;2022-11-15T10:46:23;3.10;;;0.80;;
72590;SDS011;60625;51.212;5.952;2022-11-15T10:51:27;4.50;;;0.70;;
72590;SDS011;60625;51.212;5.952;2022-11-15T10:56:28;3.10;;;0.60;;
72590;SDS011;60625;51.212;5.952;2022-11-15T11:01:32;4.10;;;0.70;;
72590;SDS011;60625;51.212;5.952;2022-11-15T11:06:57;4.10;;;0.70;;
72590;SDS011;60625;51.212;5.952;2022-11-15T11:12:01;2.40;;;0.70;;
72590;SDS011;60625;51.212;5.952;2022-11-15T11:17:31;4.80;;;0.70;;
72590;SDS011;60625;51.212;5.952;2022-11-15T11:34:29;3.20;;;0.80;;
72590;SDS011;60625;51.212;5.952;2022-11-15T11:50:44;4.50;;;0.80;;
72590;SDS011;60625;51.212;5.952;2022-11-15T11:55:51;3.90;;;0.80;;
72590;SDS011;60625;51.212;5.952;2022-11-15T12:00:59;3.60;;;0.80;;
72590;SDS011;60625;51.212;5.952;2022-11-15T12:06:30;4.10;;;0.60;;
72590;SDS011;60625;51.212;5.952;2022-11-15T12:11:43;3.90;;;0.50;;
72590;SDS011;60625;51.212;5.952;2022-11-15T12:17:01;4.10;;;0.40;;
72590;SDS011;60625;51.212;5.952;2022-11-15T12:22:20;3.50;;;0.70;;
72590;SDS011;60625;51.212;5.952;2022-11-15T12:27:47;2.80;;;0.60;;
72590;SDS011;60625;51.212;5.952;2022-11-15T12:32:57;3.00;;;0.60;;
72590;SDS011;60625;51.212;5.952;2022-11-15T12:37:59;3.90;;;0.40;;
72590;SDS011;60625;51.212;5.952;2022-11-15T12:43:37;3.00;;;0.50;;
72590;SDS011;60625;51.212;5.952;2022-11-15T12:53:40;3.80;;;0.50;;
72590;SDS011;60625;51.212;5.952;2022-11-15T12:58:49;3.30;;;0.50;;
72590;SDS011;60625;51.212;5.952;2022-11-15T13:25:21;2.50;;;0.50;;
72590;SDS011;60625;51.212;5.952;2022-11-15T13:30:32;5.60;;;0.80;;
72590;SDS011;60625;51.212;5.952;2022-11-15T13:35:38;7.90;;;0.90;;
72590;SDS011;60625;51.212;5.952;2022-11-15T13:40:40;4.00;;;0.80;;
72590;SDS011;60625;51.212;5.952;2022-11-15T13:45:41;2.30;;;0.60;;
72590;SDS011;60625;51.212;5.952;2022-11-15T13:50:42;4.10;;;0.80;;
72590;SDS011;60625;51.212;5.952;2022-11-15T13:55:43;4.50;;;0.70;;
72590;SDS011;60625;51.212;5.952;2022-11-15T14:00:44;6.20;;;0.60;;
72590;SDS011;60625;51.212;5.952;2022-11-15T14:11:18;3.80;;;0.90;;
72590;SDS011;60625;51.212;5.952;2022-11-15T14:16:21;4.20;;;0.70;;
72590;SDS011;60625;51.212;5.952;2022-11-15T14:21:21;3.70;;;0.80;;
72590;SDS011;60625;51.212;5.952;2022-11-15T14:26:29;3.50;;;0.80;;
72590;SDS011;60625;51.212;5.952;2022-11-15T14:31:31;4.50;;;0.90;;
72590;SDS011;60625;51.212;5.952;2022-11-15T14:36:31;2.60;;;0.80;;
72590;SDS011;60625;51.212;5.952;2022-11-15T14:41:35;4.50;;;1.00;;
72590;SDS011;60625;51.212;5.952;2022-11-15T14:46:39;8.50;;;1.10;;
72590;SDS011;60625;51.212;5.952;2022-11-15T14:51:39;7.30;;;1.00;;
72590;SDS011;60625;51.212;5.952;2022-11-15T14:56:40;5.10;;;1.20;;
72590;SDS011;60625;51.212;5.952;2022-11-15T15:01:41;3.60;;;0.70;;
72590;SDS011;60625;51.212;5.952;2022-11-15T15:06:42;7.70;;;1.40;;
72590;SDS011;60625;51.212;5.952;2022-11-15T15:11:42;5.60;;;0.80;;
72590;SDS011;60625;51.212;5.952;2022-11-15T15:16:44;7.20;;;1.10;;
72590;SDS011;60625;51.212;5.952;2022-11-15T15:21:44;4.90;;;1.30;;
72590;SDS011;60625;51.212;5.952;2022-11-15T15:26:44;5.00;;;1.30;;
72590;SDS011;60625;51.212;5.952;2022-11-15T15:31:45;9.40;;;1.20;;
72590;SDS011;60625;51.212;5.952;2022-11-15T15:36:45;4.70;;;1.20;;
72590;SDS011;60625;51.212;5.952;2022-11-15T15:41:46;5.80;;;1.40;;
72590;SDS011;60625;51.212;5.952;2022-11-15T15:46:46;7.00;;;1.40;;
72590;SDS011;60625;51.212;5.952;2022-11-15T15:51:47;7.10;;;1.80;;
72590;SDS011;60625;51.212;5.952;2022-11-15T15:56:47;7.80;;;2.20;;
72590;SDS011;60625;51.212;5.952;2022-11-15T16:01:48;5.50;;;1.60;;
72590;SDS011;60625;51.212;5.952;2022-11-15T16:06:48;7.00;;;2.10;;
72590;SDS011;60625;51.212;5.952;2022-11-15T16:11:52;4.50;;;1.60;;
72590;SDS011;60625;51.212;5.952;2022-11-15T16:16:52;6.70;;;2.00;;
72590;SDS011;60625;51.212;5.952;2022-11-15T16:21:53;9.10;;;3.00;;
72590;SDS011;60625;51.212;5.952;2022-11-15T16:26:53;5.90;;;2.30;;
72590;SDS011;60625;51.212;5.952;2022-11-15T16:31:54;5.90;;;1.60;;
72590;SDS011;60625;51.212;5.952;2022-11-15T16:36:55;4.10;;;2.00;;
72590;SDS011;60625;51.212;5.952;2022-11-15T16:41:57;5.60;;;2.10;;
72590;SDS011;60625;51.212;5.952;2022-11-15T16:46:57;4.20;;;1.80;;
72590;SDS011;60625;51.212;5.952;2022-11-15T16:52:00;4.80;;;1.70;;
72590;SDS011;60625;51.212;5.952;2022-11-15T16:57:00;7.20;;;2.40;;
72590;SDS011;60625;51.212;5.952;2022-11-15T17:02:01;8.00;;;2.50;;
72590;SDS011;60625;51.212;5.952;2022-11-15T17:07:02;6.60;;;2.40;;
72590;SDS011;60625;51.212;5.952;2022-11-15T17:12:02;6.00;;;2.60;;
72590;SDS011;60625;51.212;5.952;2022-11-15T17:17:03;5.80;;;2.50;;
72590;SDS011;60625;51.212;5.952;2022-11-15T17:22:03;8.00;;;2.60;;
72590;SDS011;60625;51.212;5.952;2022-11-15T17:27:04;7.00;;;3.80;;
72590;SDS011;60625;51.212;5.952;2022-11-15T17:32:04;7.50;;;3.30;;
72590;SDS011;60625;51.212;5.952;2022-11-15T17:37:05;7.60;;;3.40;;
72590;SDS011;60625;51.212;5.952;2022-11-15T17:42:06;8.50;;;4.60;;
72590;SDS011;60625;51.212;5.952;2022-11-15T17:47:06;7.20;;;3.30;;
72590;SDS011;60625;51.212;5.952;2022-11-15T17:52:07;7.40;;;3.10;;
72590;SDS011;60625;51.212;5.952;2022-11-15T17:57:08;6.00;;;2.70;;
72590;SDS011;60625;51.212;5.952;2022-11-15T18:02:11;7.30;;;3.00;;
72590;SDS011;60625;51.212;5.952;2022-11-15T18:07:12;7.70;;;3.40;;
72590;SDS011;60625;51.212;5.952;2022-11-15T18:12:13;7.90;;;3.30;;
72590;SDS011;60625;51.212;5.952;2022-11-15T18:17:13;6.30;;;3.60;;
72590;SDS011;60625;51.212;5.952;2022-11-15T18:22:13;9.90;;;4.70;;
72590;SDS011;60625;51.212;5.952;2022-11-15T18:27:14;6.80;;;3.70;;
72590;SDS011;60625;51.212;5.952;2022-11-15T18:32:14;6.50;;;3.10;;
72590;SDS011;60625;51.212;5.952;2022-11-15T18:37:17;8.40;;;4.10;;
72590;SDS011;60625;51.212;5.952;2022-11-15T18:42:17;5.70;;;3.20;;
72590;SDS011;60625;51.212;5.952;2022-11-15T18:47:18;7.40;;;4.60;;
72590;SDS011;60625;51.212;5.952;2022-11-15T18:52:18;9.10;;;4.10;;
72590;SDS011;60625;51.212;5.952;2022-11-15T18:57:18;10.10;;;4.90;;
72590;SDS011;60625;51.212;5.952;2022-11-15T19:02:19;8.50;;;4.90;;
72590;SDS011;60625;51.212;5.952;2022-11-15T19:07:20;9.40;;;4.90;;
72590;SDS011;60625;51.212;5.952;2022-11-15T19:12:20;9.50;;;4.60;;
72590;SDS011;60625;51.212;5.952;2022-11-15T19:17:20;11.60;;;4.90;;
72590;SDS011;60625;51.212;5.952;2022-11-15T19:22:21;8.50;;;4.10;;
72590;SDS011;60625;51.212;5.952;2022-11-15T19:27:21;9.70;;;4.00;;
72590;SDS011;60625;51.212;5.952;2022-11-15T19:32:22;9.50;;;4.10;;
72590;SDS011;60625;51.212;5.952;2022-11-15T19:37:22;10.40;;;4.90;;
72590;SDS011;60625;51.212;5.952;2022-11-15T19:42:23;14.20;;;4.60;;
72590;SDS011;60625;51.212;5.952;2022-11-15T19:47:23;8.60;;;4.50;;
72590;SDS011;60625;51.212;5.952;2022-11-15T19:52:26;8.90;;;4.20;;
72590;SDS011;60625;51.212;5.952;2022-11-15T19:57:26;8.00;;;4.20;;
72590;SDS011;60625;51.212;5.952;2022-11-15T20:02:26;6.40;;;3.60;;
72590;SDS011;60625;51.212;5.952;2022-11-15T20:07:27;11.60;;;4.00;;
72590;SDS011;60625;51.212;5.952;2022-11-15T20:12:28;8.50;;;3.60;;
72590;SDS011;60625;51.212;5.952;2022-11-15T20:17:29;8.60;;;3.50;;
72590;SDS011;60625;51.212;5.952;2022-11-15T20:22:29;6.30;;;3.50;;
72590;SDS011;60625;51.212;5.952;2022-11-15T20:27:30;7.10;;;3.40;;
72590;SDS011;60625;51.212;5.952;2022-11-15T20:32:30;8.40;;;3.60;;
72590;SDS011;60625;51.212;5.952;2022-11-15T20:37:31;6.70;;;3.30;;
72590;SDS011;60625;51.212;5.952;2022-11-15T20:42:31;8.80;;;4.20;;
72590;SDS011;60625;51.212;5.952;2022-11-15T20:47:32;8.70;;;3.70;;
72590;SDS011;60625;51.212;5.952;2022-11-15T20:52:32;8.50;;;4.10;;
72590;SDS011;60625;51.212;5.952;2022-11-15T20:57:33;7.50;;;4.00;;
72590;SDS011;60625;51.212;5.952;2022-11-15T21:02:33;7.10;;;3.70;;
72590;SDS011;60625;51.212;5.952;2022-11-15T21:07:34;7.10;;;3.90;;
72590;SDS011;60625;51.212;5.952;2022-11-15T21:12:34;8.80;;;3.90;;
72590;SDS011;60625;51.212;5.952;2022-11-15T21:17:35;9.20;;;4.30;;
72590;SDS011;60625;51.212;5.952;2022-11-15T21:22:35;8.30;;;4.30;;
72590;SDS011;60625;51.212;5.952;2022-11-15T21:27:36;7.40;;;4.50;;
72590;SDS011;60625;51.212;5.952;2022-11-15T21:32:36;7.30;;;4.40;;
72590;SDS011;60625;51.212;5.952;2022-11-15T21:37:38;12.00;;;4.30;;
72590;SDS011;60625;51.212;5.952;2022-11-15T21:42:39;9.50;;;4.80;;
72590;SDS011;60625;51.212;5.952;2022-11-15T21:47:39;7.70;;;4.20;;
72590;SDS011;60625;51.212;5.952;2022-11-15T21:52:40;10.70;;;4.60;;
72590;SDS011;60625;51.212;5.952;2022-11-15T21:57:40;12.30;;;4.90;;
72590;SDS011;60625;51.212;5.952;2022-11-15T22:02:41;9.70;;;5.10;;
72590;SDS011;60625;51.212;5.952;2022-11-15T22:07:41;9.70;;;3.80;;
72590;SDS011;60625;51.212;5.952;2022-11-15T22:12:42;7.30;;;3.90;;
72590;SDS011;60625;51.212;5.952;2022-11-15T22:17:42;6.80;;;3.60;;
72590;SDS011;60625;51.212;5.952;2022-11-15T22:22:58;10.20;;;3.80;;
72590;SDS011;60625;51.212;5.952;2022-11-15T22:27:59;8.60;;;3.60;;
72590;SDS011;60625;51.212;5.952;2022-11-15T22:32:59;6.50;;;3.50;;
72590;SDS011;60625;51.212;5.952;2022-11-15T22:38:00;7.00;;;3.70;;
72590;SDS011;60625;51.212;5.952;2022-11-15T22:43:01;5.90;;;3.60;;
72590;SDS011;60625;51.212;5.952;2022-11-15T22:48:02;6.50;;;4.00;;
72590;SDS011;60625;51.212;5.952;2022-11-15T22:53:02;6.30;;;3.90;;
72590;SDS011;60625;51.212;5.952;2022-11-15T22:58:03;7.60;;;3.60;;
72590;SDS011;60625;51.212;5.952;2022-11-15T23:03:03;7.50;;;3.80;;
72590;SDS011;60625;51.212;5.952;2022-11-15T23:08:04;7.40;;;4.10;;
72590;SDS011;60625;51.212;5.952;2022-11-15T23:13:07;9.20;;;3.90;;
72590;SDS011;60625;51.212;5.952;2022-11-15T23:18:17;8.40;;;3.70;;
72590;SDS011;60625;51.212;5.952;2022-11-15T23:23:18;8.10;;;4.40;;
72590;SDS011;60625;51.212;5.952;2022-11-15T23:28:18;7.20;;;4.20;;
72590;SDS011;60625;51.212;5.952;2022-11-15T23:33:19;7.60;;;3.90;;
72590;SDS011;60625;51.212;5.952;2022-11-15T23:38:39;8.10;;;4.40;;
72590;SDS011;60625;51.212;5.952;2022-11-15T23:43:39;7.10;;;3.80;;
72590;SDS011;60625;51.212;5.952;2022-11-15T23:48:40;8.40;;;4.80;;
72590;SDS011;60625;51.212;5.952;2022-11-15T23:53:41;11.20;;;5.10;;
72590;SDS011;60625;51.212;5.952;2022-11-15T23:58:42;10.40;;;5.20;;
